EHKD/DHR METAR and TAF weather

Enter ICAO airport designator
Station Type Date Time Source
EHKD METAR 2021/03/05 01:25 UTC NOAA

EHKD 050125Z AUTO 03010KT 350V060 9999 NCD 03/M02 Q1026 BLU


Station Type Date Time Source
EHKD Decoded METAR 2021/03/05 01:25 UTC NOAA

De Kooy, Netherlands (EHKD) 52-55N 004-47E 14M
Mar 04, 2021 - 08:25 PM EST / 2021.03.05 0125 UTC
Wind: from the NNE (030 degrees) at 12 MPH (10 KT) (direction variable):0
Visibility: greater than 7 mile(s):0
Temperature: 37 F (3 C)
Dew Point: 28 F (-2 C)
Relative Humidity: 69%
Pressure (altimeter): 30.30 in. Hg (1026 hPa)
ob: EHKD 050125Z AUTO 03010KT 350V060 9999 NCD 03/M02 Q1026 BLU
cycle: 1

Station Type Date Time Source
EHKD TAF 2021/03/05 02:30 UTC NOAA

TAF TAF EHKD 050119Z 0502/0514 02011KT 9999 FEW025
TEMPO 0510/0514 02009G20KT

Example: see airport list